createdAt,value
2022-09-28T00:00:34.649Z,7.70
2022-09-28T00:03:01.450Z,7.70
2022-09-28T00:05:28.045Z,7.70
2022-09-28T00:07:58.666Z,7.70
2022-09-28T00:10:30.613Z,7.70
2022-09-28T00:12:59.182Z,7.60
2022-09-28T00:15:25.889Z,7.60
2022-09-28T00:17:53.125Z,7.70
2022-09-28T00:20:20.153Z,7.70
2022-09-28T00:22:46.799Z,7.70
2022-09-28T00:25:13.588Z,7.70
2022-09-28T00:27:40.185Z,7.70
2022-09-28T00:30:07.561Z,7.70
2022-09-28T00:32:34.203Z,7.70
2022-09-28T00:35:00.832Z,7.80
2022-09-28T00:37:27.448Z,7.80
2022-09-28T00:40:02.182Z,7.80
2022-09-28T00:42:28.828Z,7.80
2022-09-28T00:44:57.066Z,7.80
2022-09-28T00:47:48.819Z,7.80
2022-09-28T00:50:35.486Z,7.80
2022-09-28T00:53:20.512Z,7.80
2022-09-28T00:55:54.788Z,7.90
2022-09-28T00:58:27.979Z,7.90
2022-09-28T01:00:58.392Z,7.90
2022-09-28T01:03:28.176Z,7.80
2022-09-28T01:05:59.071Z,7.80
2022-09-28T01:08:28.415Z,7.80
2022-09-28T01:10:55.197Z,7.80
2022-09-28T01:13:23.488Z,7.80
2022-09-28T01:16:17.287Z,7.80
2022-09-28T01:19:12.161Z,7.80
2022-09-28T01:22:07.603Z,7.80
2022-09-28T01:24:52.211Z,7.80
2022-09-28T01:27:56.423Z,7.70
2022-09-28T01:30:23.473Z,7.70
2022-09-28T01:33:04.943Z,7.70
2022-09-28T01:35:44.813Z,7.70
2022-09-28T01:38:14.451Z,7.70
2022-09-28T01:40:45.059Z,7.70
2022-09-28T01:43:29.969Z,7.70
2022-09-28T01:46:12.285Z,7.60
2022-09-28T01:48:46.380Z,7.60
2022-09-28T01:51:20.066Z,7.60
2022-09-28T01:54:00.386Z,7.60
2022-09-28T01:56:39.743Z,7.50
2022-09-28T01:59:19.011Z,7.50
2022-09-28T02:02:11.088Z,7.50
2022-09-28T02:04:41.088Z,7.50
2022-09-28T02:07:33.147Z,7.50
2022-09-28T02:10:08.328Z,7.50
2022-09-28T02:12:43.896Z,7.50
2022-09-28T02:15:12.697Z,7.50
2022-09-28T02:17:39.331Z,7.50
2022-09-28T02:20:07.604Z,7.50
2022-09-28T02:22:43.800Z,7.50
2022-09-28T02:25:43.009Z,7.50
2022-09-28T02:28:13.404Z,7.50
2022-09-28T02:30:42.171Z,7.50
2022-09-28T02:33:16.482Z,7.50
2022-09-28T02:35:43.806Z,7.50
2022-09-28T02:38:12.621Z,7.50
2022-09-28T02:40:39.724Z,7.60
2022-09-28T02:43:17.052Z,7.50
2022-09-28T02:46:20.840Z,7.50
2022-09-28T02:49:23.010Z,7.60
2022-09-28T02:52:10.867Z,7.60
2022-09-28T02:55:08.868Z,7.60
2022-09-28T02:57:56.298Z,7.60
2022-09-28T03:00:24.286Z,7.60
2022-09-28T03:03:13.062Z,7.60
2022-09-28T03:05:58.105Z,7.60
2022-09-28T03:09:07.723Z,7.60
2022-09-28T03:11:38.895Z,7.60
2022-09-28T03:14:05.992Z,7.60
2022-09-28T03:16:32.731Z,7.50
2022-09-28T03:18:59.313Z,7.50
2022-09-28T03:21:25.921Z,7.50
2022-09-28T03:23:52.667Z,7.50
2022-09-28T03:26:19.251Z,7.50
2022-09-28T03:28:45.893Z,7.60
2022-09-28T03:31:12.537Z,7.60
2022-09-28T03:33:39.168Z,7.60
2022-09-28T03:36:05.928Z,7.60
2022-09-28T03:38:32.703Z,7.60
2022-09-28T03:41:00.496Z,7.60
2022-09-28T03:43:29.872Z,7.50
2022-09-28T03:45:59.125Z,7.50
2022-09-28T03:48:32.035Z,7.50
2022-09-28T03:51:01.475Z,7.50
2022-09-28T03:53:28.452Z,7.50
2022-09-28T03:55:55.265Z,7.40
2022-09-28T03:58:22.679Z,7.40
2022-09-28T04:01:00.183Z,7.40
2022-09-28T04:03:26.773Z,7.40
2022-09-28T04:05:56.260Z,7.40
2022-09-28T04:08:23.093Z,7.30
2022-09-28T04:10:49.675Z,7.30
2022-09-28T04:13:48.134Z,7.30
2022-09-28T04:16:17.960Z,7.30
2022-09-28T04:18:52.358Z,7.30
2022-09-28T04:21:20.106Z,7.30
2022-09-28T04:23:47.404Z,7.30
2022-09-28T04:26:25.896Z,7.30
2022-09-28T04:28:52.938Z,7.30
2022-09-28T04:31:34.671Z,7.30
2022-09-28T04:34:01.256Z,7.30
2022-09-28T04:36:34.311Z,7.30
2022-09-28T04:39:14.523Z,7.30
2022-09-28T04:41:41.908Z,7.30
2022-09-28T04:44:09.438Z,7.40
2022-09-28T04:46:36.375Z,7.50
2022-09-28T04:49:03.405Z,7.50
2022-09-28T04:51:32.925Z,7.50
2022-09-28T04:53:59.697Z,7.60
2022-09-28T04:56:26.302Z,7.60
2022-09-28T04:58:53.065Z,7.60
2022-09-28T05:01:20.319Z,7.60
2022-09-28T05:03:47.159Z,7.60
2022-09-28T05:06:15.492Z,7.50
2022-09-28T05:08:42.945Z,7.50
2022-09-28T05:11:11.773Z,7.50
2022-09-28T05:13:45.744Z,7.50
2022-09-28T05:16:13.869Z,7.50
2022-09-28T05:18:40.804Z,7.50
2022-09-28T05:21:12.521Z,7.50
2022-09-28T05:23:40.084Z,7.50
2022-09-28T05:26:07.984Z,7.50
2022-09-28T05:28:34.585Z,7.50
2022-09-28T05:31:03.538Z,7.50
2022-09-28T05:33:31.487Z,7.50
2022-09-28T05:36:01.501Z,7.40
2022-09-28T05:38:29.402Z,7.40
2022-09-28T05:40:56.613Z,7.40
2022-09-28T05:43:23.420Z,7.30
2022-09-28T05:45:55.076Z,7.30
2022-09-28T05:48:22.873Z,7.30
2022-09-28T05:50:52.601Z,7.30
2022-09-28T05:53:19.562Z,7.20
2022-09-28T05:55:46.291Z,7.20
2022-09-28T07:17:12.167Z,8.90
2022-09-28T08:34:03.513Z,12.50
2022-09-28T08:37:04.641Z,12.60
2022-09-28T09:04:32.425Z,14.80
2022-09-28T09:16:31.461Z,13.80
2022-09-28T09:25:29.149Z,13.80
2022-09-28T09:47:49.967Z,15.60
2022-09-28T09:50:59.171Z,16.10
2022-09-28T09:56:51.157Z,15.70
2022-09-28T09:59:22.265Z,15.80
2022-09-28T10:02:02.212Z,16.00
2022-09-28T10:04:37.611Z,16.30
2022-09-28T10:07:13.213Z,16.20
2022-09-28T10:09:50.090Z,16.20
2022-09-28T10:12:24.569Z,16.30
2022-09-28T10:21:09.329Z,16.20
2022-09-28T10:24:14.946Z,16.20
2022-09-28T10:27:18.813Z,16.20
2022-09-28T10:32:52.709Z,16.10
2022-09-28T10:35:20.865Z,16.00
2022-09-28T10:40:27.390Z,16.40
2022-09-28T10:43:25.999Z,16.70
2022-09-28T10:48:53.273Z,16.70
2022-09-28T10:51:20.317Z,16.80
2022-09-28T10:54:02.226Z,17.00
2022-09-28T10:56:35.815Z,16.90
2022-09-28T10:59:22.489Z,17.00
2022-09-28T11:02:01.758Z,17.10
2022-09-28T11:04:34.174Z,16.80
2022-09-28T11:07:02.245Z,16.50
2022-09-28T11:09:34.526Z,16.10
2022-09-28T11:12:06.437Z,15.90
2022-09-28T11:14:42.453Z,15.70
2022-09-28T11:17:36.400Z,15.60
2022-09-28T11:23:32.507Z,15.70
2022-09-28T11:26:04.670Z,16.10
2022-09-28T11:28:34.169Z,16.30
2022-09-28T11:31:02.042Z,16.50
2022-09-28T11:34:08.229Z,16.60
2022-09-28T11:37:01.943Z,16.60
2022-09-28T11:39:37.994Z,16.60
2022-09-28T11:42:26.517Z,16.60
2022-09-28T11:45:26.908Z,16.70
2022-09-28T11:48:02.693Z,16.50
2022-09-28T11:50:54.842Z,16.30
2022-09-28T11:53:46.081Z,16.30
2022-09-28T11:56:37.362Z,16.50
2022-09-28T11:59:18.523Z,16.70
2022-09-28T12:02:20.538Z,16.90
2022-09-28T12:08:16.914Z,16.70
2022-09-28T12:11:19.489Z,16.50
2022-09-28T12:13:58.600Z,16.30
2022-09-28T12:17:07.951Z,16.10
2022-09-28T12:20:07.196Z,15.80
2022-09-28T12:22:46.154Z,15.50
2022-09-28T12:25:25.913Z,15.30
2022-09-28T12:28:02.751Z,15.20
2022-09-28T12:30:35.076Z,15.10
2022-09-28T12:33:11.693Z,15.30
2022-09-28T12:36:28.852Z,15.50
2022-09-28T12:39:18.677Z,15.50
2022-09-28T12:41:59.505Z,15.40
2022-09-28T12:44:38.355Z,15.30
2022-09-28T12:47:36.557Z,15.30
2022-09-28T12:53:40.530Z,15.10
2022-09-28T12:59:18.055Z,15.00
2022-09-28T13:02:22.554Z,15.00
2022-09-28T13:05:14.572Z,15.00
2022-09-28T13:07:56.587Z,14.90
2022-09-28T13:11:08.008Z,15.00
2022-09-28T13:13:43.582Z,14.90
2022-09-28T13:16:30.774Z,14.80
2022-09-28T13:19:40.319Z,14.80
2022-09-28T13:22:26.553Z,14.70
2022-09-28T13:24:56.024Z,14.70
2022-09-28T13:27:32.102Z,14.60
2022-09-28T13:30:02.396Z,14.50
2022-09-28T13:35:31.902Z,14.10
2022-09-28T13:38:17.263Z,13.90
2022-09-28T13:41:07.095Z,13.90
2022-09-28T13:43:52.117Z,13.90
2022-09-28T13:46:27.411Z,13.80
2022-09-28T13:49:33.077Z,13.70
2022-09-28T13:52:06.936Z,13.70
2022-09-28T13:54:55.403Z,13.60
2022-09-28T13:57:28.783Z,13.60
2022-09-28T14:00:10.871Z,13.50
2022-09-28T14:02:44.417Z,13.40
2022-09-28T14:05:23.175Z,13.40
2022-09-28T14:08:08.284Z,13.30
2022-09-28T14:10:52.436Z,13.10
2022-09-28T14:13:41.064Z,13.10
2022-09-28T14:16:25.043Z,13.10
2022-09-28T14:19:14.514Z,13.00
2022-09-28T14:22:07.758Z,13.00
2022-09-28T14:24:55.626Z,13.00
2022-09-28T14:27:48.772Z,13.00
2022-09-28T14:30:15.295Z,13.00
2022-09-28T14:33:15.155Z,13.00
2022-09-28T14:35:45.161Z,13.10
2022-09-28T14:38:21.831Z,13.10
2022-09-28T14:41:08.462Z,13.20
2022-09-28T14:43:56.256Z,13.20
2022-09-28T14:46:27.610Z,13.30
2022-09-28T14:49:13.867Z,13.40
2022-09-28T14:51:40.376Z,13.60
2022-09-28T14:54:09.913Z,13.70
2022-09-28T14:56:41.074Z,13.70
2022-09-28T14:59:19.421Z,13.70
2022-09-28T15:01:54.252Z,13.80
2022-09-28T15:04:24.502Z,13.80
2022-09-28T15:06:55.077Z,13.80
2022-09-28T15:09:55.264Z,13.90
2022-09-28T15:42:18.089Z,13.10
2022-09-28T15:53:59.629Z,13.10
2022-09-28T15:56:29.135Z,13.20
2022-09-28T16:02:32.642Z,13.20
2022-09-28T16:08:48.525Z,13.10
2022-09-28T16:14:21.483Z,13.10
2022-09-28T16:16:50.218Z,13.20
2022-09-28T16:19:35.721Z,13.20
2022-09-28T16:22:07.162Z,13.30
2022-09-28T16:24:39.755Z,13.40
2022-09-28T16:27:28.061Z,13.40
2022-09-28T16:30:15.546Z,13.40
2022-09-28T16:32:55.790Z,13.50
2022-09-28T16:35:30.641Z,13.50
2022-09-28T16:38:01.863Z,13.50
2022-09-28T16:40:28.953Z,13.40
2022-09-28T16:42:59.549Z,13.30
2022-09-28T16:45:26.193Z,13.20
2022-09-28T16:47:56.555Z,13.00
2022-09-28T16:50:24.248Z,12.90
2022-09-28T16:53:12.340Z,12.80
2022-09-28T16:55:49.545Z,12.70
2022-09-28T16:58:17.827Z,12.60
2022-09-28T17:00:44.549Z,12.50
2022-09-28T17:03:14.395Z,12.40
2022-09-28T17:05:41.450Z,12.20
2022-09-28T17:08:13.870Z,12.10
2022-09-28T17:11:09.845Z,12.00
2022-09-28T17:13:33.339Z,11.90
2022-09-28T17:16:01.226Z,11.80
2022-09-28T17:18:28.324Z,11.70
2022-09-28T17:20:56.808Z,11.60
2022-09-28T17:23:24.365Z,11.60
2022-09-28T17:25:51.689Z,11.50
2022-09-28T17:28:25.902Z,11.40
2022-09-28T17:30:54.159Z,11.40
2022-09-28T17:33:20.993Z,11.30
2022-09-28T17:35:48.329Z,11.30
2022-09-28T17:38:15.916Z,11.20
2022-09-28T17:40:44.162Z,11.10
2022-09-28T17:43:11.073Z,11.10
2022-09-28T17:45:39.515Z,11.00
2022-09-28T17:48:07.457Z,11.00
2022-09-28T17:50:34.876Z,11.00
2022-09-28T17:53:01.943Z,10.90
2022-09-28T17:55:30.673Z,10.90
2022-09-28T17:58:01.222Z,10.90
2022-09-28T18:00:28.527Z,10.80
2022-09-28T18:02:56.531Z,10.80
2022-09-28T18:05:24.686Z,10.80
2022-09-28T18:07:52.441Z,10.80
2022-09-28T18:10:22.844Z,10.70
2022-09-28T18:12:50.506Z,10.70
2022-09-28T18:15:18.981Z,10.70
2022-09-28T18:17:45.571Z,10.70
2022-09-28T18:20:13.001Z,10.70
2022-09-28T18:22:42.683Z,10.70
2022-09-28T18:25:09.762Z,10.60
2022-09-28T18:27:36.706Z,10.60
2022-09-28T18:30:04.949Z,10.60
2022-09-28T18:32:34.261Z,10.60
2022-09-28T18:35:00.945Z,10.50
2022-09-28T18:37:27.687Z,10.50
2022-09-28T18:40:00.237Z,10.60
2022-09-28T18:42:26.901Z,10.50
2022-09-28T18:44:56.748Z,10.50
2022-09-28T18:47:30.735Z,10.50
2022-09-28T18:50:01.694Z,10.50
2022-09-28T18:52:28.422Z,10.50
2022-09-28T18:54:55.368Z,10.50
2022-09-28T18:57:22.423Z,10.40
2022-09-28T18:59:50.241Z,10.50
2022-09-28T19:02:18.062Z,10.40
2022-09-28T19:04:44.823Z,10.40
2022-09-28T19:07:19.715Z,10.40
2022-09-28T19:09:47.355Z,10.40
2022-09-28T19:12:14.788Z,10.40
2022-09-28T19:14:41.473Z,10.30
2022-09-28T19:17:08.269Z,10.40
2022-09-28T19:19:36.922Z,10.40
2022-09-28T19:22:05.556Z,10.30
2022-09-28T19:24:32.264Z,10.30
2022-09-28T19:26:58.877Z,10.30
2022-09-28T19:29:25.508Z,10.20
2022-09-28T19:31:58.011Z,10.20
2022-09-28T19:34:24.747Z,10.20
2022-09-28T19:36:51.353Z,10.10
2022-09-28T19:39:17.946Z,10.00
2022-09-28T19:42:06.249Z,10.00
2022-09-28T19:44:33.465Z,9.90
2022-09-28T19:47:08.671Z,9.80
2022-09-28T19:49:37.353Z,9.70
2022-09-28T19:52:14.159Z,9.70
2022-09-28T19:54:47.318Z,9.60
2022-09-28T19:57:16.585Z,9.60
2022-09-28T19:59:43.366Z,9.50
2022-09-28T20:05:23.483Z,9.50
2022-09-28T20:07:52.450Z,9.40
2022-09-28T20:10:19.376Z,9.40
2022-09-28T20:12:46.068Z,9.30
2022-09-28T20:15:12.724Z,9.30
2022-09-28T20:17:39.486Z,9.20
2022-09-28T20:20:06.429Z,9.20
2022-09-28T20:22:33.166Z,9.20
2022-09-28T20:24:59.834Z,9.10
2022-09-28T20:27:26.678Z,9.10
2022-09-28T20:29:55.969Z,9.10
2022-09-28T20:32:27.956Z,9.00
2022-09-28T20:34:54.643Z,9.00
2022-09-28T20:37:21.295Z,9.00
2022-09-28T20:39:48.042Z,8.90
2022-09-28T20:42:14.702Z,8.90
2022-09-28T20:44:41.426Z,8.80
2022-09-28T20:47:08.156Z,8.80
2022-09-28T20:49:53.007Z,8.70
2022-09-28T20:52:28.518Z,8.70
2022-09-28T20:54:55.213Z,8.70
2022-09-28T20:57:28.333Z,8.70
2022-09-28T20:59:58.268Z,8.70
2022-09-28T21:02:40.246Z,8.70
2022-09-28T21:05:07.300Z,8.60
2022-09-28T21:07:33.950Z,8.60
2022-09-28T21:10:00.606Z,8.60
2022-09-28T21:12:27.240Z,8.60
2022-09-28T21:14:55.057Z,8.60
2022-09-28T21:17:21.693Z,8.50
2022-09-28T21:19:59.503Z,8.50
2022-09-28T21:22:28.319Z,8.50
2022-09-28T21:24:55.020Z,8.50
2022-09-28T21:27:21.611Z,8.40
2022-09-28T21:29:48.189Z,8.40
2022-09-28T21:32:14.825Z,8.40
2022-09-28T21:34:41.582Z,8.40
2022-09-28T21:37:13.922Z,8.30
2022-09-28T21:39:46.399Z,8.30
2022-09-28T21:42:15.319Z,8.20
2022-09-28T21:44:50.953Z,8.20
2022-09-28T21:47:17.628Z,8.20
2022-09-28T21:49:46.504Z,8.10
2022-09-28T21:52:13.073Z,8.10
2022-09-28T21:54:39.643Z,8.00
2022-09-28T21:57:09.364Z,8.00
2022-09-28T21:59:41.942Z,8.00
2022-09-28T22:02:08.623Z,8.00
2022-09-28T22:04:37.792Z,8.00
2022-09-28T22:07:04.460Z,8.00
2022-09-28T22:12:11.725Z,7.90
2022-09-28T22:14:38.366Z,7.90
2022-09-28T22:17:05.023Z,7.90
2022-09-28T22:19:31.667Z,7.80
2022-09-28T22:21:58.336Z,7.80
2022-09-28T22:24:25.042Z,7.80
2022-09-28T22:26:51.636Z,7.80
2022-09-28T22:29:18.250Z,7.80
2022-09-28T22:31:47.743Z,7.80
2022-09-28T22:34:16.746Z,7.80
2022-09-28T22:36:49.477Z,7.80
2022-09-28T22:39:16.115Z,7.70
2022-09-28T22:41:42.712Z,7.80
2022-09-28T22:44:09.318Z,7.80
2022-09-28T22:46:36.099Z,7.80
2022-09-28T22:49:03.081Z,7.80
2022-09-28T22:51:30.470Z,7.70
2022-09-28T22:53:57.873Z,7.70
2022-09-28T22:56:28.025Z,7.80
2022-09-28T22:58:54.960Z,7.80
2022-09-28T23:01:24.470Z,7.70
2022-09-28T23:03:52.476Z,7.70
2022-09-28T23:06:21.258Z,7.70
2022-09-28T23:08:48.705Z,7.70
2022-09-28T23:11:19.182Z,7.80
2022-09-28T23:13:53.961Z,7.80
2022-09-28T23:16:20.987Z,7.70
2022-09-28T23:18:47.756Z,7.80
2022-09-28T23:21:23.823Z,7.80
2022-09-28T23:23:58.412Z,7.80
2022-09-28T23:26:30.905Z,7.80
2022-09-28T23:28:58.104Z,7.80
2022-09-28T23:31:27.384Z,7.80
2022-09-28T23:34:02.344Z,7.80
2022-09-28T23:36:29.063Z,7.80
2022-09-28T23:38:55.790Z,7.80
2022-09-28T23:41:25.445Z,7.70
2022-09-28T23:44:00.570Z,7.70
2022-09-28T23:46:27.320Z,7.70
2022-09-28T23:49:02.694Z,7.70
2022-09-28T23:51:29.309Z,7.60
2022-09-28T23:54:02.191Z,7.60
2022-09-28T23:56:34.852Z,7.50
2022-09-28T23:59:10.614Z,7.50
